CheckWX is a tool to help pilots better visualize weather data.  It is not intended as a substitute for an official pre-flight weather briefing.

14:07:10 UTC

CYBL METAR
Campbell River Airport
Campbell River, Canada
Current

1 hour ago

CYBL 251300Z 31010KT 30SM BKN260 04/M01 A3028 RMK CI5 SLP258
Observed
Apr-25 @ 13:00 UTC
Wind
  • 310° at 10 KTS
Visibility
30 SM
Flight Rules
VFR
Cloud Levels
  • Broken at 26,000' AGL
Temperature
C / 39°F
Dewpoint
-1°C / 30°F
Humidity
70%
Altimeter
30.28" Hg
Pressure
1025.42 hPa
Previous

10 hours ago

CYBL 250400Z 28006KT 30SM BKN230 09/M03 A3032 RMK CI5 LAST STFD OBS/NEXT 251300 UTC SLP271
Observed
Apr-25 @ 04:00 UTC
Wind
  • 280° at 6 KTS
Visibility
30 SM
Flight Rules
VFR
Cloud Levels
  • Broken at 23,000' AGL
Temperature
C / 48°F
Dewpoint
-3°C / 27°F
Humidity
43%
Altimeter
30.32" Hg
Pressure
1026.72 hPa
Previous

11 hours ago

CYBL 250300Z 30006KT 30SM BKN230 11/M02 A3031 RMK CI6 SLP268
Observed
Apr-25 @ 03:00 UTC
Wind
  • 300° at 6 KTS
Visibility
30 SM
Flight Rules
VFR
Cloud Levels
  • Broken at 23,000' AGL
Temperature
11°C / 52°F
Dewpoint
-2°C / 28°F
Humidity
41%
Altimeter
30.31" Hg
Pressure
1026.42 hPa